Time;durP1;ratioP1;P1;durP2;ratioP2;P2;SDS_P1;SDS_P2;PMS_P1;PMS_P2;Temp;Humidity;BMP_temperature;BMP_pressure;BME280_temperature;BME280_humidity;BME280_pressure;Samples;Min_cycle;Max_cycle;Signal;HPM_P1;HPM_P2
2022/04/30 00:00:06;;;;;;;7.13;5.77;;;;;;;14.21;59.06;95834.38;4388468;32;20188;-59
2022/04/30 00:02:31;;;;;;;7.43;6.63;;;;;;;14.24;60.95;95828.44;4377962;32;20264;-59
2022/04/30 00:04:57;;;;;;;8.43;6.83;;;;;;;14.14;58.75;95827.88;4378352;32;20246;-59
2022/04/30 00:07:23;;;;;;;9.20;6.63;;;;;;;14.17;59.57;95822.72;4383825;32;20201;-58
2022/04/30 00:09:50;;;;;;;6.60;6.10;;;;;;;14.30;59.45;95832.56;4371167;32;20207;-59
2022/04/30 00:12:18;;;;;;;8.80;6.47;;;;;;;14.08;60.31;95840.56;4389315;32;20244;-59
2022/04/30 00:14:46;;;;;;;7.10;5.97;;;;;;;14.22;60.11;95846.63;4386006;32;20255;-58
2022/04/30 00:17:13;;;;;;;6.73;5.87;;;;;;;13.90;59.69;95836.19;4377261;32;20256;-59
2022/04/30 00:19:39;;;;;;;7.57;6.50;;;;;;;14.15;61.85;95840.91;4387883;32;20231;-59
2022/04/30 00:22:05;;;;;;;7.13;6.37;;;;;;;14.07;61.57;95839.00;4363679;32;20197;-58
2022/04/30 00:24:32;;;;;;;7.60;6.93;;;;;;;13.90;57.30;95823.66;4371490;32;20210;-59
2022/04/30 00:27:01;;;;;;;7.07;6.33;;;;;;;14.01;59.50;95819.63;4367484;32;20224;-58
2022/04/30 00:29:33;;;;;;;7.17;6.00;;;;;;;14.08;61.39;95820.00;4373725;32;20201;-59
2022/04/30 00:32:03;;;;;;;6.83;6.27;;;;;;;14.10;61.32;95823.19;4386196;32;20244;-59
2022/04/30 00:34:33;;;;;;;6.93;6.03;;;;;;;14.16;60.58;95831.03;4377562;32;20239;-59
2022/04/30 00:37:03;;;;;;;6.50;6.00;;;;;;;14.14;60.31;95831.34;4367804;32;20189;-59
2022/04/30 00:39:31;;;;;;;6.47;5.97;;;;;;;14.23;61.69;95821.53;4356550;32;20244;-59
2022/04/30 00:41:58;;;;;;;7.80;7.10;;;;;;;14.22;61.17;95822.63;4366899;32;20188;-59
2022/04/30 00:44:24;;;;;;;6.43;5.80;;;;;;;13.93;60.26;95816.87;4361128;32;20201;-58
2022/04/30 00:46:51;;;;;;;6.17;5.63;;;;;;;13.94;61.03;95811.25;4356952;32;20226;-59
2022/04/30 00:49:18;;;;;;;6.33;5.83;;;;;;;14.14;62.35;95812.66;4354694;32;20208;-58
2022/04/30 00:51:43;;;;;;;5.77;5.37;;;;;;;14.25;61.33;95816.69;4385912;32;21613;-59
2022/04/30 00:54:12;;;;;;;7.07;6.50;;;;;;;14.06;61.82;95816.06;4385899;32;20210;-59
2022/04/30 00:56:51;;;;;;;7.70;6.90;;;;;;;14.07;60.75;95814.97;4387130;32;20264;-59
2022/04/30 00:59:19;;;;;;;7.70;6.63;;;;;;;14.05;61.17;95809.16;4386426;32;20271;-59
2022/04/30 01:01:46;;;;;;;6.87;6.37;;;;;;;13.86;62.13;95805.88;4386974;32;20276;-59
2022/04/30 01:04:20;;;;;;;7.10;6.47;;;;;;;13.92;61.40;95815.34;4378987;32;20192;-60
2022/04/30 01:06:55;;;;;;;7.57;6.80;;;;;;;13.75;62.45;95811.41;4386130;32;20277;-59
2022/04/30 01:09:33;;;;;;;8.30;7.10;;;;;;;13.77;62.61;95811.91;4387632;32;20248;-59
2022/04/30 01:12:11;;;;;;;7.17;6.57;;;;;;;13.83;63.55;95807.25;4368521;32;20231;-59
2022/04/30 01:14:39;;;;;;;7.63;6.93;;;;;;;13.95;64.31;95802.16;4386742;32;20273;-59
2022/04/30 01:17:07;;;;;;;7.53;6.60;;;;;;;14.01;62.88;95800.19;4387204;32;20192;-59
2022/04/30 01:19:37;;;;;;;7.47;6.93;;;;;;;13.87;62.71;95808.25;4384679;32;20255;-59
2022/04/30 01:22:08;;;;;;;7.93;7.13;;;;;;;13.65;63.43;95800.22;4354602;32;20204;-59
2022/04/30 01:24:36;;;;;;;7.07;6.50;;;;;;;13.64;63.86;95794.09;4366940;32;20279;-59
2022/04/30 01:27:06;;;;;;;7.07;6.37;;;;;;;13.56;66.17;95797.44;4363433;32;20207;-59
2022/04/30 01:29:33;;;;;;;8.27;7.47;;;;;;;13.68;65.66;95795.06;4359142;32;20211;-59
2022/04/30 01:37:36;;;;;;;7.07;6.47;;;;;;;13.51;65.42;95788.78;4377642;32;20227;-59
2022/04/30 01:40:12;;;;;;;7.03;6.40;;;;;;;13.54;64.95;95783.63;4364596;32;20196;-59
2022/04/30 01:42:42;;;;;;;7.63;6.93;;;;;;;13.38;65.11;95785.84;4386967;32;20223;-59
2022/04/30 01:45:10;;;;;;;8.40;6.67;;;;;;;13.29;66.31;95781.53;4377612;32;20236;-59
2022/04/30 01:47:38;;;;;;;8.00;6.60;;;;;;;13.34;65.79;95778.75;4359806;32;20246;-59
2022/04/30 01:50:05;;;;;;;7.33;6.70;;;;;;;13.52;67.05;95772.47;4390445;32;20208;-59
2022/04/30 01:52:31;;;;;;;7.97;7.37;;;;;;;13.54;66.23;95775.62;4374355;32;20205;-59
2022/04/30 01:54:58;;;;;;;9.00;8.13;;;;;;;13.76;65.99;95770.34;4389947;32;20203;-59
2022/04/30 01:57:26;;;;;;;7.50;6.83;;;;;;;13.51;66.86;95770.91;4359772;32;20205;-59
2022/04/30 01:59:53;;;;;;;7.90;7.13;;;;;;;13.64;65.87;95769.31;4370119;32;20207;-59
2022/04/30 02:02:23;;;;;;;8.07;6.70;;;;;;;13.65;66.20;95768.22;4363463;32;20200;-59
2022/04/30 02:04:51;;;;;;;7.80;7.07;;;;;;;13.42;65.93;95756.72;4397064;32;20213;-59
2022/04/30 02:07:17;;;;;;;9.60;7.40;;;;;;;13.35;66.43;95759.00;4384492;32;20263;-59
2022/04/30 02:09:43;;;;;;;8.53;7.80;;;;;;;13.23;67.31;95756.06;4381056;32;20200;-59
2022/04/30 02:12:10;;;;;;;8.73;6.17;;;;;;;13.42;66.54;95754.06;4377330;32;20232;-59
2022/04/30 02:14:41;;;;;;;7.70;6.90;;;;;;;13.44;66.44;95756.44;4390987;32;20230;-59
2022/04/30 02:17:12;;;;;;;8.27;7.43;;;;;;;13.06;67.88;95754.78;4390653;32;20215;-59
2022/04/30 02:22:31;;;;;;;7.73;6.93;;;;;;;13.24;67.32;95739.78;4370887;32;20222;-59
2022/04/30 02:24:58;;;;;;;7.50;6.93;;;;;;;12.98;66.17;95741.37;4380090;32;20188;-58
2022/04/30 02:27:25;;;;;;;7.60;6.90;;;;;;;13.00;66.98;95736.53;4369255;32;20203;-57
2022/04/30 02:29:51;;;;;;;8.90;6.23;;;;;;;12.91;67.36;95736.44;4393922;32;20196;-59
2022/04/30 02:32:17;;;;;;;7.27;6.67;;;;;;;13.14;68.22;95731.97;4383435;32;20285;-59
2022/04/30 02:34:47;;;;;;;6.87;6.33;;;;;;;13.05;66.57;95736.44;4384473;32;20233;-59
2022/04/30 02:37:14;;;;;;;7.37;6.67;;;;;;;13.04;67.69;95735.66;4372368;32;20203;-59
2022/04/30 02:39:46;;;;;;;7.70;7.00;;;;;;;13.13;67.82;95729.59;4383335;32;20223;-59
2022/04/30 02:42:12;;;;;;;7.40;6.83;;;;;;;12.76;66.25;95723.44;4369435;32;20196;-59
2022/04/30 02:44:40;;;;;;;6.73;6.13;;;;;;;12.86;67.53;95720.59;4382134;32;20191;-59
2022/04/30 02:47:07;;;;;;;7.10;6.47;;;;;;;13.00;68.41;95718.69;4391273;32;20193;-59
2022/04/30 02:49:33;;;;;;;8.70;5.97;;;;;;;12.87;67.28;95710.72;4358721;32;20189;-58
2022/04/30 02:52:00;;;;;;;6.53;5.93;;;;;;;12.45;67.00;95703.84;4390243;32;20219;-59
2022/04/30 02:54:25;;;;;;;9.00;5.90;;;;;;;12.66;69.02;95705.03;4383129;32;20215;-61
2022/04/30 02:56:52;;;;;;;6.00;5.60;;;;;;;12.50;68.29;95711.69;4364803;32;20185;-59
2022/04/30 03:02:01;;;;;;;6.27;5.87;;;;;;;12.70;69.19;95700.66;4390990;32;20223;-59
2022/04/30 03:04:28;;;;;;;6.97;6.37;;;;;;;12.87;69.01;95708.84;4389178;32;20185;-59
2022/04/30 03:06:54;;;;;;;6.90;5.97;;;;;;;12.97;68.80;95703.28;4382554;32;20253;-59
2022/04/30 03:09:21;;;;;;;6.20;5.63;;;;;;;12.87;66.84;95694.75;4373782;32;20242;-58
2022/04/30 03:11:48;;;;;;;7.87;5.80;;;;;;;12.79;68.58;95692.78;4380409;32;20193;-59
2022/04/30 03:14:13;;;;;;;7.53;5.67;;;;;;;12.67;68.72;95685.31;4390613;32;21656;-59
2022/04/30 03:22:10;;;;;;;6.77;6.17;;;;;;;12.37;70.17;95684.00;4390473;32;20277;-59
2022/04/30 03:24:36;;;;;;;6.73;6.23;;;;;;;12.48;69.05;95674.75;4380172;32;20211;-58
2022/04/30 03:27:03;;;;;;;6.70;5.93;;;;;;;12.38;68.88;95674.94;4384648;32;20188;-59
2022/04/30 03:29:29;;;;;;;11.13;5.53;;;;;;;12.27;69.79;95678.87;4383084;32;20240;-59
2022/04/30 03:31:56;;;;;;;6.27;5.70;;;;;;;12.32;70.71;95668.94;4368761;32;20200;-59
2022/04/30 03:34:21;;;;;;;8.23;5.50;;;;;;;12.12;70.29;95676.50;4399189;32;20207;-59
2022/04/30 03:36:47;;;;;;;5.17;4.80;;;;;;;12.16;70.53;95680.94;4381763;32;20193;-58
2022/04/30 03:39:12;;;;;;;6.50;5.90;;;;;;;12.45;71.80;95679.87;4376254;32;20286;-58
2022/04/30 03:41:40;;;;;;;6.67;6.07;;;;;;;12.42;70.37;95688.47;4382480;32;20201;-58
2022/04/30 03:44:07;;;;;;;5.53;5.13;;;;;;;12.27;68.14;95692.97;4378018;32;20207;-58
2022/04/30 03:46:33;;;;;;;6.40;5.80;;;;;;;12.26;70.92;95691.38;4355016;32;20189;-58
2022/04/30 03:49:00;;;;;;;6.30;5.80;;;;;;;11.99;69.89;95686.03;4353515;32;20231;-58
2022/04/30 03:51:25;;;;;;;6.17;5.77;;;;;;;11.96;72.04;95684.75;4382614;32;20192;-59
2022/04/30 03:53:52;;;;;;;5.90;5.50;;;;;;;12.06;70.26;95689.09;4394615;32;20210;-59
2022/04/30 03:56:19;;;;;;;6.10;5.50;;;;;;;12.22;70.14;95694.94;4389753;32;20192;-58
2022/04/30 03:58:47;;;;;;;6.83;5.37;;;;;;;11.88;70.66;95697.91;4377268;32;20259;-59
2022/04/30 04:01:21;;;;;;;6.57;5.83;;;;;;;12.18;71.56;95694.75;4350924;32;20196;-59
2022/04/30 04:03:50;;;;;;;6.17;5.57;;;;;;;12.02;71.22;95701.41;4387746;32;20244;-59
2022/04/30 04:06:17;;;;;;;5.40;4.90;;;;;;;12.01;70.35;95699.84;4389507;32;20177;-58
2022/04/30 04:08:43;;;;;;;5.60;5.17;;;;;;;11.95;70.67;95703.66;4353717;32;20193;-58
2022/04/30 04:11:13;;;;;;;5.90;5.57;;;;;;;11.91;70.20;95700.00;4369224;32;20270;-58
2022/04/30 04:19:06;;;;;;;5.30;4.87;;;;;;;12.16;71.42;95707.53;4359231;32;20214;-58
2022/04/30 04:21:31;;;;;;;8.97;5.03;;;;;;;12.22;69.74;95703.72;4390414;32;20193;-58
2022/04/30 04:26:45;;;;;;;5.43;4.97;;;;;;;12.20;69.85;95711.19;4381187;32;20263;-59
2022/04/30 04:29:11;;;;;;;5.13;4.73;;;;;;;12.24;69.50;95712.19;4381621;32;20247;-59
2022/04/30 04:31:39;;;;;;;5.47;4.97;;;;;;;12.39;69.85;95717.22;4361622;32;20180;-59
2022/04/30 04:34:05;;;;;;;5.20;4.80;;;;;;;12.44;68.76;95711.03;4362929;32;20184;-59
2022/04/30 04:36:31;;;;;;;5.60;5.20;;;;;;;12.57;69.91;95715.56;4380888;32;20204;-59
2022/04/30 04:38:57;;;;;;;6.10;5.67;;;;;;;12.57;68.77;95714.78;4380526;32;20196;-59
2022/04/30 04:41:22;;;;;;;5.50;5.20;;;;;;;12.25;68.57;95712.97;4367399;32;20225;-59
2022/04/30 04:43:47;;;;;;;7.83;4.83;;;;;;;12.30;69.28;95715.53;4392355;32;20249;-59
2022/04/30 04:46:17;;;;;;;5.43;4.97;;;;;;;12.39;70.12;95706.59;4382939;32;20211;-59
2022/04/30 04:48:43;;;;;;;5.50;5.10;;;;;;;12.32;70.50;95716.03;4360164;32;20246;-59
2022/04/30 04:51:09;;;;;;;5.70;5.30;;;;;;;12.26;69.14;95711.91;4371337;32;20236;-59
2022/04/30 04:53:36;;;;;;;6.17;5.00;;;;;;;12.55;69.49;95715.06;4345802;32;20220;-59
2022/04/30 04:56:06;;;;;;;5.60;5.30;;;;;;;12.48;68.22;95717.31;4354172;32;20280;-59
2022/04/30 04:58:33;;;;;;;6.97;5.83;;;;;;;12.39;69.51;95724.41;4375342;32;20220;-58
2022/04/30 05:00:58;;;;;;;6.00;5.50;;;;;;;12.38;69.27;95726.28;4376424;32;20261;-58
2022/04/30 05:03:24;;;;;;;5.43;5.07;;;;;;;12.56;68.16;95721.16;4391782;32;20188;-58
2022/04/30 05:05:51;;;;;;;5.37;4.97;;;;;;;12.63;69.11;95724.25;4373858;32;20232;-58
2022/04/30 05:08:19;;;;;;;5.70;5.20;;;;;;;12.66;68.33;95736.97;4389147;32;20192;-59
2022/04/30 05:10:45;;;;;;;5.33;4.90;;;;;;;12.59;67.68;95739.22;4372021;32;20223;-58
2022/04/30 05:13:10;;;;;;;5.73;5.27;;;;;;;12.61;68.38;95739.72;4352783;32;20267;-58
2022/04/30 05:15:39;;;;;;;5.20;4.90;;;;;;;12.69;67.12;95731.81;4351669;32;20193;-59
2022/04/30 05:18:07;;;;;;;5.80;5.27;;;;;;;12.76;68.12;95734.09;4344637;32;20189;-59
2022/04/30 05:20:32;;;;;;;5.47;5.17;;;;;;;12.81;67.79;95734.00;4369085;32;20196;-59
2022/04/30 05:22:58;;;;;;;7.53;5.43;;;;;;;12.71;65.66;95726.19;4357835;32;20291;-58
2022/04/30 05:25:24;;;;;;;6.17;5.60;;;;;;;12.82;67.30;95730.25;4358657;32;20181;-59
2022/04/30 05:27:52;;;;;;;8.10;5.73;;;;;;;12.77;67.37;95727.69;4374551;32;20241;-59
2022/04/30 05:30:17;;;;;;;6.77;6.03;;;;;;;12.79;65.93;95725.50;4355816;32;20246;-58
2022/04/30 05:32:44;;;;;;;5.97;5.57;;;;;;;12.68;67.04;95735.56;4374024;32;20244;-58
2022/04/30 05:35:11;;;;;;;5.53;5.03;;;;;;;12.78;66.00;95739.91;4387868;32;20215;-58
2022/04/30 05:37:36;;;;;;;6.30;5.57;;;;;;;12.70;66.42;95737.91;4387954;32;20197;-59
2022/04/30 05:40:04;;;;;;;6.30;5.70;;;;;;;12.93;67.24;95741.47;4366945;32;20230;-59
2022/04/30 05:42:29;;;;;;;6.57;6.07;;;;;;;12.89;67.95;95746.59;4349414;32;20227;-59
2022/04/30 05:44:55;;;;;;;6.43;6.03;;;;;;;12.79;67.30;95756.66;4387983;32;20196;-59
2022/04/30 05:47:20;;;;;;;6.13;5.73;;;;;;;12.52;65.28;95752.91;4375889;32;20206;-59
2022/04/30 05:49:46;;;;;;;6.40;5.90;;;;;;;12.43;67.00;95754.69;4381971;32;20192;-59
2022/04/30 05:52:13;;;;;;;8.07;6.47;;;;;;;12.56;69.14;95763.75;4390107;32;20256;-59
2022/04/30 05:54:40;;;;;;;8.20;6.50;;;;;;;12.55;68.06;95760.31;4370922;32;20254;-58
2022/04/30 05:57:09;;;;;;;6.67;6.03;;;;;;;12.20;68.31;95772.38;4372026;32;20203;-58
2022/04/30 05:59:36;;;;;;;7.67;6.30;;;;;;;12.10;70.70;95777.84;4379323;32;20295;-59
2022/04/30 06:02:01;;;;;;;7.27;6.67;;;;;;;11.96;69.67;95777.03;4377606;32;20257;-59
2022/04/30 06:04:28;;;;;;;7.40;6.77;;;;;;;11.71;68.43;95770.19;4355198;32;20185;-59
2022/04/30 06:06:53;;;;;;;8.17;7.37;;;;;;;11.76;69.99;95772.00;4358650;32;20189;-58
2022/04/30 06:09:20;;;;;;;7.93;7.43;;;;;;;11.65;68.67;95766.81;4361181;32;20192;-58
2022/04/30 06:11:47;;;;;;;7.87;7.10;;;;;;;11.84;70.35;95758.88;4361383;32;20267;-59
2022/04/30 06:14:12;;;;;;;7.80;7.07;;;;;;;11.99;69.29;95763.16;4377143;32;20180;-59
2022/04/30 06:16:38;;;;;;;8.47;7.70;;;;;;;12.38;69.82;95765.41;4320806;32;20194;-58
2022/04/30 06:19:05;;;;;;;8.50;7.67;;;;;;;12.51;68.44;95753.19;4355201;32;20235;-59
2022/04/30 06:21:31;;;;;;;11.57;8.90;;;;;;;12.57;66.22;95760.81;4361786;32;20196;-59
2022/04/30 06:23:57;;;;;;;10.47;7.43;;;;;;;12.49;64.48;95763.34;4362346;32;20193;-59
2022/04/30 06:26:23;;;;;;;10.80;8.40;;;;;;;12.81;67.79;95759.84;4351062;32;20240;-59
2022/04/30 06:28:50;;;;;;;8.47;7.67;;;;;;;12.87;65.18;95748.78;4364481;32;20318;-59
2022/04/30 06:31:16;;;;;;;9.30;8.67;;;;;;;12.90;67.62;95755.37;4352261;32;22506;-59
2022/04/30 06:33:42;;;;;;;7.87;7.27;;;;;;;12.95;65.26;95758.72;4362285;32;20215;-59
2022/04/30 06:36:09;;;;;;;9.07;8.23;;;;;;;12.90;63.77;95764.16;4337631;32;20185;-59
2022/04/30 06:38:35;;;;;;;19.50;8.60;;;;;;;12.81;64.72;95755.28;4340976;32;20216;-59
2022/04/30 06:41:01;;;;;;;9.07;8.37;;;;;;;12.82;66.85;95758.75;4363296;32;20208;-59
2022/04/30 06:43:27;;;;;;;9.37;8.47;;;;;;;12.91;64.75;95756.94;4388481;32;20215;-59
2022/04/30 06:45:54;;;;;;;9.73;8.67;;;;;;;12.90;62.47;95764.16;4371461;32;20216;-59
2022/04/30 06:48:19;;;;;;;10.33;9.37;;;;;;;12.93;65.64;95768.88;4365993;32;20298;-59
2022/04/30 06:50:45;;;;;;;12.23;9.50;;;;;;;13.17;66.41;95771.37;4375866;32;23704;-59
2022/04/30 06:58:53;;;;;;;10.80;8.60;;;;;;;13.39;66.73;95759.97;4376197;32;20267;-59
2022/04/30 07:04:06;;;;;;;9.97;9.00;;;;;;;13.27;64.18;95762.38;4365680;32;20207;-58
2022/04/30 07:06:34;;;;;;;10.73;9.17;;;;;;;13.21;64.88;95760.91;4366716;32;20203;-58
2022/04/30 07:09:02;;;;;;;13.03;8.40;;;;;;;13.33;64.15;95753.19;4349900;32;20243;-59
2022/04/30 07:11:28;;;;;;;13.37;10.57;;;;;;;13.28;63.86;95753.31;4374165;32;20184;-59
2022/04/30 07:13:54;;;;;;;12.53;9.60;;;;;;;13.22;64.12;95747.28;4385698;32;20236;-58
2022/04/30 07:16:20;;;;;;;9.87;8.90;;;;;;;13.33;64.80;95743.31;4369545;32;20203;-58
2022/04/30 07:18:46;;;;;;;11.60;8.83;;;;;;;13.30;63.68;95756.47;4364728;32;20276;-58
2022/04/30 07:21:12;;;;;;;11.90;9.13;;;;;;;13.10;64.87;95746.97;4377475;32;20204;-58
2022/04/30 07:23:37;;;;;;;9.73;8.73;;;;;;;13.15;63.43;95749.56;4376774;32;20195;-58
2022/04/30 07:26:07;;;;;;;11.20;9.23;;;;;;;13.44;64.58;95756.44;4375297;32;20252;-58
2022/04/30 07:28:35;;;;;;;9.57;8.57;;;;;;;13.38;62.67;95755.75;4339947;32;20228;-58
2022/04/30 07:31:06;;;;;;;11.10;8.97;;;;;;;13.57;64.32;95759.03;4349183;32;20205;-58
2022/04/30 07:33:31;;;;;;;10.43;8.67;;;;;;;13.57;65.93;95751.03;4382597;32;20216;-58
2022/04/30 07:35:58;;;;;;;10.20;9.30;;;;;;;13.56;63.62;95757.47;4377280;32;20257;-58
2022/04/30 07:38:24;;;;;;;10.37;9.37;;;;;;;13.56;63.93;95754.81;4388284;32;20215;-59
2022/04/30 07:40:51;;;;;;;17.47;8.50;;;;;;;13.61;62.69;95751.22;4387334;32;20188;-43
2022/04/30 07:43:17;;;;;;;25.00;8.63;;;;;;;13.62;63.55;95753.59;4374717;32;20278;-40
2022/04/30 07:45:44;;;;;;;17.63;8.20;;;;;;;14.18;69.85;95749.59;4358550;32;20197;-40
2022/04/30 07:48:14;;;;;;;12.97;9.07;;;;;;;14.43;66.31;95757.00;4385678;32;20248;-40
2022/04/30 07:50:43;;;;;;;11.43;8.10;;;;;;;14.63;62.56;95763.69;4390645;32;20237;-40
2022/04/30 07:53:09;;;;;;;14.53;8.17;;;;;;;14.91;63.35;95758.94;4373816;32;20203;-40
2022/04/30 07:55:34;;;;;;;9.90;8.77;;;;;;;15.15;63.00;95771.09;4374478;32;20192;-40
2022/04/30 07:58:02;;;;;;;17.33;8.30;;;;;;;15.01;58.49;95765.84;4348488;32;20189;-43
2022/04/30 08:00:29;;;;;;;11.63;8.17;;;;;;;15.20;59.79;95771.72;4366211;32;20219;-41
2022/04/30 08:02:56;;;;;;;9.53;8.63;;;;;;;15.24;58.09;95771.87;4368123;32;20199;-45
2022/04/30 08:05:27;;;;;;;10.57;8.60;;;;;;;15.11;58.70;95766.38;4373239;32;20242;-42
2022/04/30 08:07:55;;;;;;;9.83;8.03;;;;;;;15.30;59.67;95762.63;4378290;32;20200;-44
2022/04/30 08:10:22;;;;;;;12.93;8.57;;;;;;;15.41;57.53;95769.25;4327612;32;20244;-41
2022/04/30 08:12:56;;;;;;;9.60;8.70;;;;;;;15.29;56.32;95769.06;4333357;32;20256;-42
2022/04/30 08:15:42;;;;;;;10.03;9.07;;;;;;;15.43;56.70;95764.38;4341180;32;20196;-40
2022/04/30 08:18:10;;;;;;;9.77;8.87;;;;;;;15.39;56.48;95768.75;4369868;32;20197;-40
2022/04/30 08:20:37;;;;;;;10.60;9.60;;;;;;;15.65;56.31;95758.13;4382300;32;20234;-40
2022/04/30 08:23:14;;;;;;;10.63;9.73;;;;;;;15.41;54.97;95763.91;4387281;32;20188;-47
2022/04/30 08:25:39;;;;;;;10.83;9.83;;;;;;;15.23;54.88;95773.00;4376947;32;20290;-41
2022/04/30 08:28:07;;;;;;;11.23;8.63;;;;;;;15.26;55.14;95778.50;4375851;32;20289;-42
2022/04/30 08:30:33;;;;;;;10.27;9.43;;;;;;;15.36;56.57;95775.56;4383345;32;20199;-47
2022/04/30 08:32:59;;;;;;;9.87;8.90;;;;;;;15.47;54.57;95781.38;4366937;32;20218;-42
2022/04/30 08:35:25;;;;;;;9.83;8.93;;;;;;;15.60;55.65;95780.47;4377562;32;20200;-41
2022/04/30 08:37:52;;;;;;;9.90;9.07;;;;;;;15.71;54.50;95789.78;4364965;32;20215;-41
2022/04/30 08:40:19;;;;;;;9.63;8.83;;;;;;;15.65;53.47;95791.00;4356354;32;20237;-43
2022/04/30 08:42:46;;;;;;;10.50;9.60;;;;;;;15.74;54.96;95794.50;4363629;32;20248;-40
2022/04/30 08:45:14;;;;;;;10.93;10.07;;;;;;;15.67;54.06;95794.16;4349467;32;20192;-40
2022/04/30 08:47:42;;;;;;;12.03;11.03;;;;;;;15.73;53.90;95798.28;4369626;32;20236;-40
2022/04/30 08:50:09;;;;;;;11.67;10.47;;;;;;;15.70;54.06;95796.22;4340119;32;20216;-59
2022/04/30 08:52:36;;;;;;;12.60;11.70;;;;;;;15.66;54.09;95797.94;4328264;32;20206;-62
2022/04/30 08:55:07;;;;;;;13.93;12.73;;;;;;;14.89;53.53;95805.75;4334885;32;20252;-62
2022/04/30 08:57:36;;;;;;;12.57;11.47;;;;;;;14.60;54.27;95808.91;4315604;32;20205;-62
2022/04/30 09:00:04;;;;;;;13.30;12.20;;;;;;;14.31;56.16;95812.00;4347811;32;20209;-62
2022/04/30 09:02:31;;;;;;;13.07;11.97;;;;;;;14.18;57.03;95805.62;4373779;32;20289;-63
2022/04/30 09:04:59;;;;;;;13.87;12.37;;;;;;;14.20;56.63;95800.78;4364181;32;20196;-61
2022/04/30 09:07:25;;;;;;;13.10;12.10;;;;;;;14.05;57.69;95793.94;4356921;32;20192;-62
2022/04/30 09:10:14;;;;;;;13.53;12.33;;;;;;;14.05;59.13;95801.16;4370476;32;20240;-61
2022/04/30 09:12:41;;;;;;;13.70;12.60;;;;;;;13.99;58.62;95800.47;4371786;32;20253;-61
2022/04/30 09:15:15;;;;;;;13.43;12.03;;;;;;;14.11;59.46;95797.28;4372362;32;20181;-62
2022/04/30 09:17:44;;;;;;;13.70;12.33;;;;;;;14.00;58.26;95795.94;4383705;32;20212;-61
2022/04/30 09:20:18;;;;;;;13.73;12.50;;;;;;;14.05;59.58;95793.16;4362439;32;20263;-62
2022/04/30 09:22:44;;;;;;;12.80;11.67;;;;;;;14.38;59.25;95791.78;4343439;32;20211;-62
2022/04/30 09:25:16;;;;;;;13.07;11.87;;;;;;;14.42;59.09;95792.00;4378350;32;20236;-62
2022/04/30 09:27:51;;;;;;;13.47;12.27;;;;;;;14.37;58.63;95790.22;4355782;32;20189;-62
2022/04/30 09:30:24;;;;;;;12.37;11.27;;;;;;;14.25;59.52;95789.19;4341907;32;20202;-62
2022/04/30 09:33:20;;;;;;;12.70;11.70;;;;;;;14.47;59.93;95796.44;4354235;32;20184;-62
2022/04/30 09:38:41;;;;;;;11.87;10.87;;;;;;;14.29;58.71;95795.50;4341717;32;20196;-62
2022/04/30 09:41:08;;;;;;;11.53;10.47;;;;;;;14.22;61.00;95792.47;4369904;32;20311;-61
2022/04/30 09:43:36;;;;;;;11.40;10.40;;;;;;;14.32;59.69;95787.69;4368215;32;20180;-61
2022/04/30 09:46:07;;;;;;;11.87;10.90;;;;;;;14.35;58.75;95797.72;4384549;32;20192;-61
2022/04/30 09:54:07;;;;;;;12.10;11.20;;;;;;;14.35;56.92;95805.72;4351100;32;20211;-60
2022/04/30 09:56:44;;;;;;;11.73;10.73;;;;;;;14.29;57.56;95800.84;4322908;32;20234;-61
2022/04/30 09:59:16;;;;;;;11.00;10.20;;;;;;;14.28;57.78;95797.38;4333310;32;20265;-61
2022/04/30 10:01:45;;;;;;;11.93;10.87;;;;;;;14.41;58.28;95806.44;4362669;32;20192;-61
2022/04/30 10:04:16;;;;;;;12.50;11.00;;;;;;;14.56;58.44;95795.38;4319998;32;20221;-61
2022/04/30 10:06:51;;;;;;;12.10;11.17;;;;;;;14.58;58.21;95795.84;4307285;32;20197;-61
2022/04/30 10:09:44;;;;;;;13.13;12.00;;;;;;;14.60;58.75;95799.00;4344443;32;20207;-61
2022/04/30 10:12:31;;;;;;;12.37;11.37;;;;;;;14.71;56.81;95799.53;4368657;32;20299;-62
2022/04/30 10:15:31;;;;;;;11.73;10.53;;;;;;;14.54;57.94;95802.91;4350279;32;20216;-62
2022/04/30 10:17:58;;;;;;;11.50;10.17;;;;;;;14.63;59.08;95809.06;4337506;32;20240;-61
2022/04/30 10:20:33;;;;;;;15.33;13.93;;;;;;;14.66;58.57;95813.81;4344416;32;20189;-62
2022/04/30 10:23:01;;;;;;;11.13;10.10;;;;;;;14.54;58.23;95805.59;4345195;32;20195;-62
2022/04/30 10:25:35;;;;;;;11.30;10.30;;;;;;;14.57;58.75;95814.84;4333209;32;20257;-63
2022/04/30 10:28:24;;;;;;;11.80;10.70;;;;;;;14.41;59.61;95815.22;4338051;32;20221;-64
2022/04/30 10:31:01;;;;;;;11.27;10.17;;;;;;;14.49;59.95;95815.59;4337499;32;20259;-61
2022/04/30 10:33:32;;;;;;;10.53;9.63;;;;;;;14.60;58.94;95819.56;4341028;32;20197;-62
2022/04/30 10:36:12;;;;;;;10.70;10.00;;;;;;;14.53;59.11;95813.91;4344627;32;20205;-63
2022/04/30 10:38:38;;;;;;;10.57;9.57;;;;;;;14.31;59.57;95814.69;4344525;32;20208;-62
2022/04/30 10:41:08;;;;;;;9.83;9.03;;;;;;;14.36;60.25;95815.31;4363013;32;20201;-63
2022/04/30 10:43:41;;;;;;;13.00;9.50;;;;;;;14.51;60.03;95818.75;4362448;32;20192;-64
2022/04/30 10:46:25;;;;;;;10.57;9.57;;;;;;;14.48;59.25;95811.34;4346359;32;20215;-63
2022/04/30 10:48:52;;;;;;;10.37;9.37;;;;;;;14.60;60.36;95819.56;4335661;32;20264;-63
2022/04/30 10:51:43;;;;;;;10.10;9.20;;;;;;;14.51;60.51;95819.53;4324288;32;22539;-63
2022/04/30 10:54:19;;;;;;;9.43;8.73;;;;;;;14.71;60.75;95810.22;4333872;32;20346;-63
2022/04/30 10:56:56;;;;;;;9.00;8.20;;;;;;;14.52;60.73;95807.78;4341962;32;20222;-63
2022/04/30 10:59:26;;;;;;;9.80;9.03;;;;;;;14.71;61.12;95807.56;4322976;32;20181;-63
2022/04/30 11:01:52;;;;;;;9.20;8.50;;;;;;;14.75;61.73;95811.19;4308400;32;20243;-63
2022/04/30 11:04:21;;;;;;;9.97;8.43;;;;;;;14.70;62.41;95808.66;4338854;32;20254;-63
2022/04/30 11:06:54;;;;;;;9.47;8.57;;;;;;;14.91;62.54;95809.69;4329050;32;20205;-63
2022/04/30 11:09:24;;;;;;;9.30;8.57;;;;;;;14.80;64.09;95808.37;4296427;32;21446;-63
2022/04/30 11:11:51;;;;;;;9.50;8.70;;;;;;;14.62;65.54;95806.72;4288154;32;20254;-63
2022/04/30 11:14:21;;;;;;;10.53;9.50;;;;;;;14.76;67.47;95807.41;4294485;32;20208;-63
2022/04/30 11:16:49;;;;;;;9.83;9.07;;;;;;;14.61;69.65;95802.47;4373522;32;20243;-63
2022/04/30 11:19:19;;;;;;;10.77;9.87;;;;;;;14.51;70.27;95802.75;4331349;32;20193;-62
2022/04/30 11:22:05;;;;;;;10.10;9.30;;;;;;;14.48;70.92;95803.34;4344131;32;20203;-62
2022/04/30 11:24:33;;;;;;;10.30;9.33;;;;;;;14.54;70.65;95812.81;4337717;32;20218;-63
2022/04/30 11:27:03;;;;;;;10.67;9.87;;;;;;;14.42;70.09;95803.47;4358753;32;20207;-64
2022/04/30 11:29:55;;;;;;;10.70;9.90;;;;;;;14.29;71.96;95798.19;4353166;32;20189;-64
2022/04/30 11:32:34;;;;;;;9.63;9.03;;;;;;;14.42;70.74;95795.47;4371665;32;21462;-62
2022/04/30 11:35:19;;;;;;;10.07;9.30;;;;;;;14.56;69.95;95797.25;4326269;32;20192;-63
2022/04/30 11:37:45;;;;;;;9.13;8.43;;;;;;;14.58;69.61;95797.72;4351994;32;20227;-62
2022/04/30 11:40:14;;;;;;;10.00;9.00;;;;;;;14.59;69.11;95801.97;4365504;32;20232;-63
2022/04/30 11:42:41;;;;;;;10.53;9.20;;;;;;;14.44;68.69;95790.59;4363296;32;20185;-62
2022/04/30 11:45:09;;;;;;;9.87;8.60;;;;;;;14.53;68.68;95804.00;4348850;32;20216;-62
2022/04/30 11:47:35;;;;;;;9.27;8.37;;;;;;;14.57;68.28;95798.81;4362778;32;20211;-62
2022/04/30 11:50:08;;;;;;;9.10;8.20;;;;;;;14.73;66.66;95808.03;4373862;32;20268;-63
2022/04/30 11:52:35;;;;;;;9.77;8.87;;;;;;;14.71;65.09;95804.88;4338795;32;20198;-63
2022/04/30 11:55:05;;;;;;;9.60;8.83;;;;;;;14.35;66.07;95796.94;4326165;32;20211;-63
2022/04/30 11:57:34;;;;;;;10.07;9.13;;;;;;;14.42;66.23;95803.47;4373661;32;20310;-63
2022/04/30 12:00:00;;;;;;;9.57;8.63;;;;;;;14.16;66.46;95802.47;4340715;32;20203;-62
2022/04/30 12:02:30;;;;;;;8.30;7.60;;;;;;;14.30;66.42;95811.22;4343384;32;20304;-61
2022/04/30 12:05:03;;;;;;;10.20;9.20;;;;;;;14.05;66.62;95803.81;4354743;32;20243;-61
2022/04/30 12:07:39;;;;;;;10.63;9.10;;;;;;;14.15;67.25;95806.22;4352352;32;20243;-62
2022/04/30 12:10:26;;;;;;;8.87;8.03;;;;;;;14.34;67.65;95801.50;4366439;32;20188;-60
2022/04/30 12:12:53;;;;;;;8.03;7.43;;;;;;;14.35;67.64;95808.41;4314111;32;20195;-60
2022/04/30 12:15:40;;;;;;;7.63;7.10;;;;;;;14.23;67.20;95802.84;4357146;32;20264;-60
2022/04/30 12:26:37;;;;;;;6.97;6.57;;;;;;;14.00;68.18;95803.94;4371890;32;20261;-61